Pacific Hope — 3FLH6 — position and weather

sailwx.info

Track history (hours):
 
Tides and Currents Weather Stations Pressure Air Temp Water Temp Dewpoint Dewpoint Depression Visibility Wind Speed Wind Dir Waves Ship Positions

Pacific Hope

Last reported at 2015-Jan-25 17:33 UTC. Time now 2015-Jan-25 18:23 UTC.
Position N 22°07' E 113°49'.

Length 169 m; draft 9.1 m.

Type: Ship. MMSI: 351849000.

Date/timePositionNaut miles runAvg speedWind from/ knotsBaromVisibWave heightAir tempDewpointWater temp
2015-Jan-25 17:33N 22°07' E 113°49'1110.8
2015-Jan-25 16:33N 22°17' E 113°48'1211.8
2015-Jan-25 15:33N 22°29' E 113°45'1412.5
2015-Jan-25 14:28N 22°42' E 113°41'1011.3
2015-Jan-25 13:33N 22°50' E 113°34'10 9.8
2015-Jan-25 12:33N 22°60' E 113°31'3 2.9
2015-Jan-25 11:25N 23°03' E 113°31'0 0.0
2015-Jan-25 10:31N 23°03' E 113°31'0 0.0
2015-Jan-25 09:25N 23°03' E 113°31'0 0.0
2015-Jan-25 08:31N 23°03' E 113°31'0 0.0
2015-Jan-25 07:31N 23°03' E 113°31'0 0.0
2015-Jan-25 06:31N 23°03' E 113°31'0 0.0
2015-Jan-25 05:31N 23°03' E 113°31'0 0.0
2015-Jan-25 04:31N 23°03' E 113°31'0 0.0
2015-Jan-25 03:19N 23°03' E 113°31'0 0.0
2015-Jan-25 02:31N 23°03' E 113°31'0 0.0
2015-Jan-25 01:31N 23°03' E 113°31'0 0.0
2015-Jan-25 00:31N 23°03' E 113°31'0 0.0
2015-Jan-24 23:28N 23°03' E 113°31'0 0.0
2015-Jan-24 22:28N 23°03' E 113°31'0 0.0
2015-Jan-24 21:28N 23°03' E 113°31'0 0.0
2015-Jan-24 20:28N 23°03' E 113°31'0 0.0
2015-Jan-24 19:28N 23°03' E 113°31'0 0.0
2015-Jan-24 18:28N 23°03' E 113°31'0 0.0
2015-Jan-24 17:22N 23°03' E 113°31'0 0.0
2015-Jan-24 16:28N 23°03' E 113°31'0 0.0
2015-Jan-24 15:28N 23°03' E 113°31'0 0.0
2015-Jan-24 14:28N 23°03' E 113°31'0 0.0
2015-Jan-24 13:28N 23°03' E 113°31'0 0.0
2015-Jan-24 12:28N 23°03' E 113°31'0 0.0
2015-Jan-24 11:28N 23°03' E 113°31'0 0.0
2015-Jan-24 10:28N 23°03' E 113°31'3 3.4
2015-Jan-24 09:33N 22°60' E 113°31'9 9.3
2015-Jan-24 08:33N 22°51' E 113°34'1110.5
2015-Jan-24 07:31N 22°42' E 113°41'1211.5
2015-Jan-24 06:30N 22°31' E 113°44'1212.5
2015-Jan-24 05:33N 22°19' E 113°48'1111.5
2015-Jan-24 04:33N 22°08' E 113°48'6 2.9
2015-Jan-24 02:32N 22°04' E 113°52'0 0.0
2015-Jan-24 01:32N 22°04' E 113°52'0 0.0
2015-Jan-24 00:20N 22°04' E 113°52'0 0.1
2015-Jan-23 23:32N 22°04' E 113°52'0 0.0
2015-Jan-23 22:32N 22°04' E 113°52'0 0.0
2015-Jan-23 21:14N 22°04' E 113°52'0 0.1
2015-Jan-23 20:32N 22°04' E 113°52'0 0.1
2015-Jan-23 19:32N 22°04' E 113°52'3 2.9
2015-Jan-23 18:33N 22°06' E 113°54'2411.9
2015-Jan-23 16:31N 22°08' E 114°20'23212.2
2015-Jan-22 21:28N 23°43' E 118°10'1213.2
2015-Jan-22 20:32N 23°50' E 118°20'4113.6
2015-Jan-22 17:31N 24°17' E 118°54'  
Track history (hours):
 
Tides and Currents Weather Stations Pressure Air Temp Water Temp Dewpoint Dewpoint Depression Visibility Wind Speed Wind Dir Waves Ship Positions

Pacific Hope

Last reported at 2015-Jan-25 17:33 UTC. Time now 2015-Jan-25 18:23 UTC.
Position N 22°07' E 113°49'.

Length 169 m; draft 9.1 m.

Type: Ship. MMSI: 351849000.

Date/timePositionNaut miles runAvg speedWind from/ knotsBaromVisibWave heightAir tempDewpointWater temp
2015-Jan-25 17:33N 22°07' E 113°49'1110.8
2015-Jan-25 16:33N 22°17' E 113°48'1211.8
2015-Jan-25 15:33N 22°29' E 113°45'1412.5
2015-Jan-25 14:28N 22°42' E 113°41'1011.3
2015-Jan-25 13:33N 22°50' E 113°34'10 9.8
2015-Jan-25 12:33N 22°60' E 113°31'3 2.9
2015-Jan-25 11:25N 23°03' E 113°31'0 0.0
2015-Jan-25 10:31N 23°03' E 113°31'0 0.0
2015-Jan-25 09:25N 23°03' E 113°31'0 0.0
2015-Jan-25 08:31N 23°03' E 113°31'0 0.0
2015-Jan-25 07:31N 23°03' E 113°31'0 0.0
2015-Jan-25 06:31N 23°03' E 113°31'0 0.0
2015-Jan-25 05:31N 23°03' E 113°31'0 0.0
2015-Jan-25 04:31N 23°03' E 113°31'0 0.0
2015-Jan-25 03:19N 23°03' E 113°31'0 0.0
2015-Jan-25 02:31N 23°03' E 113°31'0 0.0
2015-Jan-25 01:31N 23°03' E 113°31'0 0.0
2015-Jan-25 00:31N 23°03' E 113°31'0 0.0
2015-Jan-24 23:28N 23°03' E 113°31'0 0.0
2015-Jan-24 22:28N 23°03' E 113°31'0 0.0
2015-Jan-24 21:28N 23°03' E 113°31'0 0.0
2015-Jan-24 20:28N 23°03' E 113°31'0 0.0
2015-Jan-24 19:28N 23°03' E 113°31'0 0.0
2015-Jan-24 18:28N 23°03' E 113°31'0 0.0
2015-Jan-24 17:22N 23°03' E 113°31'0 0.0
2015-Jan-24 16:28N 23°03' E 113°31'0 0.0
2015-Jan-24 15:28N 23°03' E 113°31'0 0.0
2015-Jan-24 14:28N 23°03' E 113°31'0 0.0
2015-Jan-24 13:28N 23°03' E 113°31'0 0.0
2015-Jan-24 12:28N 23°03' E 113°31'0 0.0
2015-Jan-24 11:28N 23°03' E 113°31'0 0.0
2015-Jan-24 10:28N 23°03' E 113°31'3 3.4
2015-Jan-24 09:33N 22°60' E 113°31'9 9.3
2015-Jan-24 08:33N 22°51' E 113°34'1110.5
2015-Jan-24 07:31N 22°42' E 113°41'1211.5
2015-Jan-24 06:30N 22°31' E 113°44'1212.5
2015-Jan-24 05:33N 22°19' E 113°48'1111.5
2015-Jan-24 04:33N 22°08' E 113°48'6 2.9
2015-Jan-24 02:32N 22°04' E 113°52'0 0.0
2015-Jan-24 01:32N 22°04' E 113°52'0 0.0
2015-Jan-24 00:20N 22°04' E 113°52'0 0.1
2015-Jan-23 23:32N 22°04' E 113°52'0 0.0
2015-Jan-23 22:32N 22°04' E 113°52'0 0.0
2015-Jan-23 21:14N 22°04' E 113°52'0 0.1
2015-Jan-23 20:32N 22°04' E 113°52'0 0.1
2015-Jan-23 19:32N 22°04' E 113°52'3 2.9
2015-Jan-23 18:33N 22°06' E 113°54'2411.9
2015-Jan-23 16:31N 22°08' E 114°20'23212.2
2015-Jan-22 21:28N 23°43' E 118°10'1213.2
2015-Jan-22 20:32N 23°50' E 118°20'4113.6
2015-Jan-22 17:31N 24°17' E 118°54'  

Dump ship's entire track history